VNKT METAR

Available data for VNKT from the past hour
KATHMANDU INTL A
Metar
VNKT 280750Z 21011KT 190V250 7000 FEW020 FEW025TCU SCT030 27/08 Q1013 NOSIG

07:50 UTC

Wind: 210° 11kt

Visibility: 7000 m

Sky: FEW 2000 ft

Temp: 27 deg C / 80.6 deg F

Dewpoint: 8 deg C / 46.4 deg F

Pressure: 1013 hPa

TAF
TAF VNKT 272300Z 2800/2824 00000KT 3000 BR FEW015 BECMG 2804/2805 09003KT 5000 HZ FEW020 BECMG 2807/2809 25008KT 9999 FEW025 SCT030 BECMG 2813/2814 VRB02KT 7000 FEW020 SCT100

WARNING: the data listed  above is for informational purposes only and should be confirmed from official sources. Data presented here on this page are fetched from Aviation weather data from NOAA’s Aviation Digital Data Service.

How to see the Details of METAR Reading.

Click on the Triangle beside of the Word METAR.(Refer to Fig.1)

VNKTmetar